createdAt,value
2023-04-26T00:00:35.736Z,98301.83
2023-04-26T00:04:36.049Z,98297.87
2023-04-26T00:08:33.736Z,98301.65
2023-04-26T00:12:31.834Z,98302.27
2023-04-26T00:16:29.886Z,98302.05
2023-04-26T00:20:29.801Z,98306.08
2023-04-26T00:24:27.746Z,98305.27
2023-04-26T00:28:25.749Z,98305.62
2023-04-26T00:32:25.811Z,98312.80
2023-04-26T00:36:25.776Z,98318.21
2023-04-26T00:40:24.709Z,98318.04
2023-04-26T00:44:22.730Z,98320.49
2023-04-26T00:48:20.736Z,98318.14
2023-04-26T00:52:18.823Z,98321.66
2023-04-26T00:56:16.713Z,98316.92
2023-04-26T01:00:14.781Z,98319.72
2023-04-26T01:04:14.032Z,98319.17
2023-04-26T01:08:12.692Z,98322.47
2023-04-26T01:12:10.701Z,98324.66
2023-04-26T01:16:10.765Z,98323.34
2023-04-26T01:20:08.698Z,98332.95
2023-04-26T01:24:06.654Z,98338.20
2023-04-26T01:28:04.697Z,98339.42
2023-04-26T01:32:03.722Z,98340.11
2023-04-26T01:36:01.714Z,98340.21
2023-04-26T01:39:59.665Z,98342.58
2023-04-26T01:43:57.656Z,98347.88
2023-04-26T01:47:55.696Z,98354.22
2023-04-26T01:51:56.624Z,98355.80
2023-04-26T01:55:54.668Z,98361.70
2023-04-26T01:59:52.643Z,98360.02
2023-04-26T02:03:50.671Z,98361.14
2023-04-26T02:07:48.610Z,98361.88
2023-04-26T02:11:46.767Z,98359.73
2023-04-26T02:15:45.632Z,98354.04
2023-04-26T02:19:43.777Z,98354.73
2023-04-26T02:23:41.611Z,98348.66
2023-04-26T02:27:40.650Z,98352.61
2023-04-26T02:31:38.631Z,98353.48
2023-04-26T02:35:36.610Z,98357.27
2023-04-26T02:39:34.581Z,98354.14
2023-04-26T02:43:32.575Z,98351.92
2023-04-26T02:47:30.571Z,98352.92
2023-04-26T02:51:28.608Z,98358.36
2023-04-26T02:55:26.516Z,98361.20
2023-04-26T02:59:24.580Z,98364.48
2023-04-26T03:03:22.931Z,98367.17
2023-04-26T03:07:21.567Z,98370.49
2023-04-26T03:11:19.552Z,98369.59
2023-04-26T03:15:17.495Z,98371.08
2023-04-26T03:19:15.499Z,98388.63
2023-04-26T03:23:13.580Z,98386.46
2023-04-26T03:27:11.494Z,98397.68
2023-04-26T03:31:09.645Z,98395.66
2023-04-26T03:35:07.559Z,98401.95
2023-04-26T03:39:05.617Z,98409.36
2023-04-26T03:43:03.483Z,98422.03
2023-04-26T03:47:02.585Z,98433.24
2023-04-26T03:51:01.458Z,98438.45
2023-04-26T03:54:59.573Z,98445.33
2023-04-26T03:58:57.458Z,98458.23
2023-04-26T04:02:55.664Z,98464.45
2023-04-26T04:06:53.445Z,98468.68
2023-04-26T04:10:51.464Z,98474.39
2023-04-26T04:14:49.420Z,98483.74
2023-04-26T04:18:49.616Z,98486.38
2023-04-26T04:22:49.437Z,98487.52
2023-04-26T04:26:47.471Z,98492.66
2023-04-26T04:30:45.384Z,98498.16
2023-04-26T04:34:43.392Z,98504.86
2023-04-26T04:38:41.404Z,98508.71
2023-04-26T04:42:41.450Z,98510.45
2023-04-26T04:46:40.492Z,98515.61
2023-04-26T04:50:38.400Z,98512.13
2023-04-26T04:54:36.380Z,98515.41
2023-04-26T04:58:34.479Z,98517.44
2023-04-26T05:02:32.495Z,98522.79
2023-04-26T05:06:30.367Z,98527.83
2023-04-26T05:10:28.359Z,98540.33
2023-04-26T05:14:26.520Z,98543.19
2023-04-26T05:18:24.396Z,98548.79
2023-04-26T05:22:25.551Z,98552.24
2023-04-26T05:26:28.434Z,98554.98
2023-04-26T05:30:57.345Z,98561.98
2023-04-26T05:35:13.304Z,98560.01
2023-04-26T05:39:13.471Z,98562.21
2023-04-26T05:43:11.349Z,98562.41
2023-04-26T05:47:09.361Z,98561.23
2023-04-26T05:51:07.316Z,98566.58
2023-04-26T05:55:05.347Z,98565.63
2023-04-26T05:59:03.310Z,98567.98
2023-04-26T06:02:41.094Z,98574.72
2023-04-26T06:06:09.229Z,98570.14
2023-04-26T06:09:35.274Z,98573.81
2023-04-26T06:12:59.682Z,98578.30
2023-04-26T06:16:24.684Z,98588.67
2023-04-26T06:19:48.862Z,98591.79
2023-04-26T06:23:13.087Z,98594.24
2023-04-26T06:26:37.937Z,98597.83
2023-04-26T06:30:02.283Z,98602.45
2023-04-26T06:33:27.518Z,98606.64
2023-04-26T06:36:54.224Z,98605.94
2023-04-26T06:40:19.928Z,98602.55
2023-04-26T06:43:44.214Z,98605.84
2023-04-26T06:47:17.364Z,98610.05
2023-04-26T06:50:41.769Z,98619.38
2023-04-26T06:54:06.301Z,98623.21
2023-04-26T06:57:30.182Z,98627.09
2023-04-26T07:00:54.117Z,98629.40
2023-04-26T07:04:19.245Z,98634.98
2023-04-26T07:07:43.576Z,98640.42
2023-04-26T07:11:11.639Z,98647.94
2023-04-26T07:14:37.806Z,98650.06
2023-04-26T07:18:03.005Z,98648.23
2023-04-26T07:21:26.989Z,98648.81
2023-04-26T07:24:51.161Z,98651.52
2023-04-26T07:28:15.037Z,98658.98
2023-04-26T07:31:38.878Z,98660.39
2023-04-26T07:35:02.845Z,98665.11
2023-04-26T07:38:26.978Z,98663.23
2023-04-26T07:41:51.053Z,98659.41
2023-04-26T07:45:15.058Z,98663.05
2023-04-26T07:48:38.815Z,98659.89
2023-04-26T07:52:02.821Z,98663.57
2023-04-26T07:55:26.946Z,98668.00
2023-04-26T07:58:50.966Z,98665.34
2023-04-26T08:02:14.892Z,98665.85
2023-04-26T08:05:39.474Z,98674.01
2023-04-26T08:09:05.169Z,98674.74
2023-04-26T08:12:29.140Z,98678.80
2023-04-26T08:15:53.158Z,98678.05
2023-04-26T08:19:17.256Z,98673.46
2023-04-26T08:22:41.496Z,98679.95
2023-04-26T08:26:05.396Z,98678.69
2023-04-26T08:29:29.257Z,98683.24
2023-04-26T08:32:53.084Z,98680.64
2023-04-26T08:36:17.066Z,98676.04
2023-04-26T08:39:41.822Z,98676.27
2023-04-26T08:43:06.162Z,98672.39
2023-04-26T08:46:31.180Z,98676.64
2023-04-26T08:49:59.835Z,98676.39
2023-04-26T08:53:24.716Z,98679.06
2023-04-26T08:56:49.511Z,98675.98
2023-04-26T09:00:16.180Z,98678.08
2023-04-26T09:03:40.380Z,98682.64
2023-04-26T09:07:08.323Z,98685.41
2023-04-26T09:10:32.377Z,98686.86
2023-04-26T09:13:56.332Z,98690.59
2023-04-26T09:17:30.854Z,98690.98
2023-04-26T09:21:06.462Z,98694.08
2023-04-26T09:24:47.296Z,98701.00
2023-04-26T09:28:22.774Z,98704.14
2023-04-26T09:31:49.741Z,98710.48
2023-04-26T09:35:34.245Z,98713.86
2023-04-26T09:38:58.089Z,98713.14
2023-04-26T09:42:22.296Z,98713.09
2023-04-26T09:45:46.268Z,98710.40
2023-04-26T09:49:10.099Z,98711.32
2023-04-26T09:52:44.431Z,98719.81
2023-04-26T09:56:11.603Z,98727.39
2023-04-26T09:59:45.041Z,98727.33
2023-04-26T10:03:09.976Z,98726.97
2023-04-26T10:06:34.214Z,98726.35
2023-04-26T10:09:58.530Z,98725.05
2023-04-26T10:13:22.925Z,98722.44
2023-04-26T10:16:47.204Z,98717.59
2023-04-26T10:20:14.600Z,98717.80
2023-04-26T10:23:39.336Z,98711.00
2023-04-26T10:27:04.273Z,98709.80
2023-04-26T10:30:28.570Z,98713.09
2023-04-26T10:34:24.324Z,98711.98
2023-04-26T10:38:00.456Z,98719.14
2023-04-26T10:41:32.758Z,98723.52
2023-04-26T10:45:02.916Z,98726.00
2023-04-26T10:48:29.428Z,98729.61
2023-04-26T10:52:13.385Z,98731.64
2023-04-26T10:55:41.832Z,98737.25
2023-04-26T10:59:33.261Z,98737.42
2023-04-26T11:02:59.115Z,98747.05
2023-04-26T11:06:25.586Z,98745.08
2023-04-26T11:09:50.585Z,98745.87
2023-04-26T11:13:14.474Z,98750.56
2023-04-26T11:16:38.400Z,98753.09
2023-04-26T11:20:10.041Z,98754.51
2023-04-26T11:23:35.454Z,98767.09
2023-04-26T11:26:59.806Z,98768.35
2023-04-26T11:30:23.815Z,98773.13
2023-04-26T11:33:49.218Z,98780.67
2023-04-26T11:37:14.364Z,98777.61
2023-04-26T11:40:38.331Z,98774.70
2023-04-26T11:44:02.170Z,98773.36
2023-04-26T11:47:30.866Z,98771.54
2023-04-26T11:50:55.489Z,98776.94
2023-04-26T11:54:33.680Z,98782.15
2023-04-26T11:57:58.422Z,98786.48
2023-04-26T12:01:29.965Z,98787.27
2023-04-26T12:05:01.140Z,98781.86
2023-04-26T12:08:27.198Z,98779.31
2023-04-26T12:12:06.467Z,98779.78
2023-04-26T12:15:35.239Z,98783.98
2023-04-26T12:18:59.284Z,98795.00
2023-04-26T12:22:23.303Z,98796.95
2023-04-26T12:26:02.073Z,98794.06
2023-04-26T12:29:26.182Z,98790.06
2023-04-26T12:32:50.295Z,98794.33
2023-04-26T12:36:14.650Z,98797.95
2023-04-26T12:39:38.408Z,98800.06
2023-04-26T12:43:02.237Z,98804.98
2023-04-26T12:46:26.395Z,98807.77
2023-04-26T12:49:50.250Z,98803.98
2023-04-26T12:53:14.117Z,98814.15
2023-04-26T12:56:44.025Z,98818.20
2023-04-26T13:00:10.724Z,98821.06
2023-04-26T13:03:35.002Z,98823.53
2023-04-26T13:06:59.077Z,98824.94
2023-04-26T13:10:23.191Z,98813.96
2023-04-26T13:13:47.088Z,98811.32
2023-04-26T13:17:11.146Z,98811.79
2023-04-26T13:20:35.203Z,98814.88
2023-04-26T13:23:59.006Z,98819.98
2023-04-26T13:27:22.986Z,98819.03
2023-04-26T13:31:06.853Z,98827.67
2023-04-26T13:35:05.862Z,98833.05
2023-04-26T13:39:03.895Z,98834.42
2023-04-26T13:43:02.765Z,98839.88
2023-04-26T13:47:03.844Z,98834.35
2023-04-26T13:51:03.988Z,98833.20
2023-04-26T13:55:02.880Z,98834.77
2023-04-26T13:59:00.709Z,98837.29
2023-04-26T14:02:59.086Z,98849.27
2023-04-26T14:06:56.802Z,98851.45
2023-04-26T14:10:54.788Z,98854.16
2023-04-26T14:14:54.741Z,98851.90
2023-04-26T14:18:54.764Z,98849.19
2023-04-26T14:22:52.778Z,98855.36
2023-04-26T14:26:50.702Z,98856.85
2023-04-26T14:30:48.783Z,98858.64
2023-04-26T14:34:46.763Z,98873.72
2023-04-26T14:38:45.761Z,98872.25
2023-04-26T14:42:43.710Z,98878.73
2023-04-26T14:46:41.786Z,98882.98
2023-04-26T14:50:39.845Z,98885.36
2023-04-26T14:54:37.639Z,98887.92
2023-04-26T14:58:35.758Z,98890.46
2023-04-26T15:02:33.781Z,98899.14
2023-04-26T15:06:32.849Z,98895.75
2023-04-26T15:10:30.735Z,98900.36
2023-04-26T15:14:28.693Z,98909.80
2023-04-26T15:18:26.753Z,98909.06
2023-04-26T15:22:24.623Z,98911.98
2023-04-26T15:26:22.631Z,98918.50
2023-04-26T15:30:20.641Z,98920.05
2023-04-26T15:34:18.630Z,98925.70
2023-04-26T15:38:16.607Z,98924.74
2023-04-26T15:42:21.577Z,98925.60
2023-04-26T15:46:19.739Z,98920.70
2023-04-26T15:50:20.170Z,98927.73
2023-04-26T15:54:17.600Z,98921.65
2023-04-26T15:58:15.551Z,98928.92
2023-04-26T16:02:14.668Z,98927.91
2023-04-26T16:06:12.670Z,98936.36
2023-04-26T16:10:11.735Z,98937.56
2023-04-26T16:14:09.684Z,98942.81
2023-04-26T16:18:07.848Z,98943.30
2023-04-26T16:22:05.604Z,98941.95
2023-04-26T16:26:03.641Z,98948.58
2023-04-26T16:30:01.730Z,98955.35
2023-04-26T16:33:59.640Z,98965.77
2023-04-26T16:37:58.541Z,98970.00
2023-04-26T16:41:56.621Z,98971.09
2023-04-26T16:45:54.687Z,98971.54
2023-04-26T16:49:52.577Z,98980.33
2023-04-26T16:53:50.505Z,98987.98
2023-04-26T16:57:48.498Z,98988.77
2023-04-26T17:01:46.512Z,98997.64
2023-04-26T17:05:44.594Z,99001.54
2023-04-26T17:09:42.470Z,99001.89
2023-04-26T17:13:40.569Z,99006.88
2023-04-26T17:17:38.498Z,99010.56
2023-04-26T17:21:36.525Z,99013.92
2023-04-26T17:25:34.490Z,99013.70
2023-04-26T17:29:32.541Z,99019.58
2023-04-26T17:33:30.442Z,99025.89
2023-04-26T17:37:30.475Z,99027.74
2023-04-26T17:41:28.576Z,99030.88
2023-04-26T17:45:26.484Z,99030.69
2023-04-26T17:49:24.471Z,99037.08
2023-04-26T17:53:22.685Z,99032.77
2023-04-26T17:57:20.466Z,99034.27
2023-04-26T18:01:18.569Z,99040.27
2023-04-26T18:05:16.449Z,99045.86
2023-04-26T18:09:15.533Z,99053.33
2023-04-26T18:13:13.525Z,99058.81
2023-04-26T18:17:11.498Z,99059.97
2023-04-26T18:21:09.425Z,99068.25
2023-04-26T18:25:07.606Z,99069.14
2023-04-26T18:29:06.453Z,99070.38
2023-04-26T18:33:06.638Z,99076.35
2023-04-26T18:37:04.398Z,99089.08
2023-04-26T18:41:02.368Z,99091.48
2023-04-26T18:45:00.375Z,99093.76
2023-04-26T18:49:00.873Z,99095.80
2023-04-26T18:52:58.417Z,99096.16
2023-04-26T18:56:56.413Z,99098.09
2023-04-26T19:00:56.301Z,99099.85
2023-04-26T19:04:54.438Z,99105.66
2023-04-26T19:08:52.373Z,99105.59
2023-04-26T19:12:51.443Z,99106.59
2023-04-26T19:16:49.299Z,99112.16
2023-04-26T19:20:47.352Z,99114.84
2023-04-26T19:24:45.381Z,99117.52
2023-04-26T19:28:44.426Z,99121.80
2023-04-26T19:32:42.483Z,99121.75
2023-04-26T19:36:41.408Z,99121.47
2023-04-26T19:40:39.295Z,99121.01
2023-04-26T19:44:37.318Z,99122.64
2023-04-26T19:48:35.311Z,99123.42
2023-04-26T19:52:33.286Z,99119.54
2023-04-26T19:56:31.410Z,99120.14
2023-04-26T20:00:29.407Z,99119.02
2023-04-26T20:04:27.434Z,99123.33
2023-04-26T20:08:25.277Z,99129.30
2023-04-26T20:12:23.237Z,99126.70
2023-04-26T20:16:21.372Z,99134.61
2023-04-26T20:20:19.289Z,99134.27
2023-04-26T20:24:17.249Z,99135.41
2023-04-26T20:28:15.338Z,99139.00
2023-04-26T20:32:14.149Z,99139.29
2023-04-26T20:36:12.317Z,99137.88
2023-04-26T20:40:11.342Z,99138.07
2023-04-26T20:44:09.203Z,99143.54
2023-04-26T20:48:07.307Z,99144.77
2023-04-26T20:52:05.282Z,99142.98
2023-04-26T20:56:03.261Z,99140.45
2023-04-26T21:00:03.204Z,99146.48
2023-04-26T21:04:01.404Z,99148.61
2023-04-26T21:07:59.228Z,99149.76
2023-04-26T21:11:58.202Z,99155.17
2023-04-26T21:16:04.266Z,99154.77
2023-04-26T21:20:02.180Z,99157.92
2023-04-26T21:24:00.251Z,99162.80
2023-04-26T21:27:58.234Z,99167.20
2023-04-26T21:31:56.213Z,99163.23
2023-04-26T21:35:54.189Z,99163.49
2023-04-26T21:39:52.164Z,99171.37
2023-04-26T21:43:50.249Z,99176.48
2023-04-26T21:47:48.240Z,99176.85
2023-04-26T21:51:47.176Z,99183.41
2023-04-26T21:55:45.103Z,99185.33
2023-04-26T21:59:43.157Z,99187.73
2023-04-26T22:03:41.295Z,99192.11
2023-04-26T22:07:39.150Z,99196.27
2023-04-26T22:11:37.254Z,99197.48
2023-04-26T22:15:35.107Z,99199.84
2023-04-26T22:19:33.192Z,99201.56
2023-04-26T22:23:31.110Z,99203.40
2023-04-26T22:27:29.139Z,99199.06
2023-04-26T22:31:27.145Z,99200.11
2023-04-26T22:35:25.077Z,99201.60
2023-04-26T22:39:23.177Z,99202.02
2023-04-26T22:43:21.101Z,99205.69
2023-04-26T22:47:19.056Z,99207.98
2023-04-26T22:51:17.049Z,99206.73
2023-04-26T22:55:15.295Z,99207.64
2023-04-26T22:59:13.273Z,99206.20
2023-04-26T23:03:11.223Z,99207.55
2023-04-26T23:07:08.997Z,99209.66
2023-04-26T23:11:07.053Z,99214.52
2023-04-26T23:15:05.122Z,99216.20
2023-04-26T23:19:03.019Z,99218.55
2023-04-26T23:23:00.993Z,99217.50
2023-04-26T23:26:59.041Z,99217.75
2023-04-26T23:30:57.035Z,99223.06
2023-04-26T23:34:55.010Z,99223.17
2023-04-26T23:38:53.021Z,99224.67
2023-04-26T23:42:51.066Z,99223.91
2023-04-26T23:46:48.999Z,99225.55
2023-04-26T23:50:48.036Z,99228.98
2023-04-26T23:54:46.138Z,99226.50
2023-04-26T23:58:44.014Z,99232.55
